Celebrity Solstice — 9HRJ9 — position and weather

sailwx.info

Track history (hours):
 
Tides and Currents Weather Stations Pressure Air Temp Water Temp Dewpoint Dewpoint Depression Visibility Wind Speed Wind Dir Waves Ship Positions

Celebrity Solstice

Last reported at 2017-Jun-24 05:00 UTC. Time now 2017-Jun-24 05:20 UTC.
Position N 48°19' W 124°01'.

Length 317 m; draft 9 m.

Type: Ship. MMSI: 249409000.

Date/timePositionNaut miles runAvg speedWind from/ knotsBaromVisibWave heightAir tempDewpointWater temp
2017-Jun-24 05:00N 48°19' W 124°01'917.8
2017-Jun-24 04:30N 48°17' W 123°49'1018.4
2017-Jun-24 03:59N 48°15' W 123°35'816.4
2017-Jun-24 03:30N 48°12' W 123°24'510.8
2017-Jun-24 03:00N 48°11' W 123°16'917.1
2017-Jun-24 02:30N 48°12' W 123°03'917.5
2017-Jun-24 02:00N 48°11' W 122°50'7523.5
2017-Jun-24 02:00N 48°12' W 123°00'1529.3 230 / 61021.010.8 22.4 14.4
2017-Jun-24 01:30N 48°07' W 122°39'815.8
2017-Jun-24 01:01N 47°60' W 122°36'7410.6
2017-Jun-24 01:00N 47°54' W 122°30'1 1.9 330 / 211020.010.8 22.1 14.8
2017-Jun-24 00:30N 47°54' W 122°29'815.2
2017-Jun-24 00:00N 47°46' W 122°26'4591.5
2017-Jun-24 00:00N 47°42' W 122°24'4 7.8 350 / 231020.0 5.4 22.1 15.4
2017-Jun-23 23:30N 47°39' W 122°27'3 5.1
2017-Jun-23 23:00N 47°38' W 122°23'0 0.0
2017-Jun-23 22:30N 47°38' W 122°23'0 0.0
2017-Jun-23 22:00N 47°38' W 122°23'0 0.0
2017-Jun-23 21:30N 47°38' W 122°23'0 0.0
2017-Jun-23 21:00N 47°38' W 122°23'4443.6
2017-Jun-23 21:00N 47°36' W 122°18'4 7.7 010 / 181018.0 5.4 23.0 14.9
2017-Jun-23 20:30N 47°38' W 122°23'0 0.0
2017-Jun-23 20:00N 47°38' W 122°23'4597.9
2017-Jun-23 20:00N 47°36' W 122°18'4 7.8 350 / 121024.0 5.4 21.0 14.5
2017-Jun-23 19:30N 47°38' W 122°23'0 0.0
2017-Jun-23 19:00N 47°38' W 122°23'4573.0
2017-Jun-23 19:00N 47°36' W 122°18'4 7.7 350 / 121024.0 5.4 20.0 14.5
2017-Jun-23 18:30N 47°38' W 122°23'0 0.0
2017-Jun-23 18:00N 47°38' W 122°23'0 0.0
2017-Jun-23 17:30N 47°38' W 122°23'0 0.0
2017-Jun-23 17:00N 47°38' W 122°23'0 0.0
2017-Jun-23 16:30N 47°38' W 122°23'0 0.0
2017-Jun-23 16:00N 47°38' W 122°23'4233.1
2017-Jun-23 16:00N 47°36' W 122°18'4 7.7 010 / 111025.0 5.4 18.0 14.5
2017-Jun-23 15:30N 47°38' W 122°23'0 0.0
2017-Jun-23 15:00N 47°38' W 122°23'0 0.0
2017-Jun-23 14:00N 47°38' W 122°23'0 0.0
2017-Jun-23 13:30N 47°38' W 122°23'0 0.0
2017-Jun-23 13:00N 47°38' W 122°23'1 2.5
2017-Jun-23 12:30N 47°37' W 122°25'612.4
2017-Jun-23 12:00N 47°43' W 122°28'714.7
2017-Jun-23 11:30N 47°51' W 122°28'713.8
2017-Jun-23 11:00N 47°57' W 122°33'714.3
2017-Jun-23 10:30N 48°03' W 122°39'714.0
2017-Jun-23 10:00N 48°09' W 122°44'109411.6
2017-Jun-23 10:00N 48°00' W 122°36'1734.2 020 / 151020.0 5.4 10.0 10.0
2017-Jun-23 09:30N 48°11' W 122°54'714.8
2017-Jun-23 09:00N 48°12' W 123°05'714.8
2017-Jun-23 08:30N 48°10' W 123°16'612.0
2017-Jun-23 08:00N 48°10' W 123°25'714.3
2017-Jun-23 07:30N 48°17' W 123°28'714.7
2017-Jun-23 07:00N 48°24' W 123°24'4 4.1
2017-Jun-23 06:00N 48°24' W 123°18'0 0.0 1025.0 5.4 16.0 13.3
2017-Jun-23 02:00N 48°24' W 123°18'4 1.9 200 / 81024.0 17.1 13.0
2017-Jun-23 00:00N 48°25' W 123°23'2 3.8
2017-Jun-22 23:30N 48°23' W 123°25'714.8
2017-Jun-22 23:00N 48°16' W 123°26'816.9
2017-Jun-22 22:30N 48°14' W 123°38'917.0
2017-Jun-22 22:00N 48°13' W 123°51'6401.4
2017-Jun-22 22:00N 48°12' W 123°42'1529.8 110 / 131021.0 2.2 10.0 10.0
2017-Jun-22 21:29N 48°16' W 124°04'917.9
2017-Jun-22 21:00N 48°20' W 124°15'917.5
2017-Jun-22 20:28N 48°24' W 124°28'817.3
2017-Jun-22 20:00N 48°27' W 124°39'816.4
2017-Jun-22 19:30N 48°29' W 124°51'816.5
2017-Jun-22 19:00N 48°29' W 125°04'5385.9
2017-Jun-22 19:00N 48°24' W 125°06'919.1 290 / 21028.0 5.4 12.0 13.5
2017-Jun-22 18:30N 48°31' W 125°16'816.0
2017-Jun-22 18:00N 48°35' W 125°26'3209.2
2017-Jun-22 18:00N 48°36' W 125°30'510.4 130 / 71028.0 5.4 11.0 13.9
2017-Jun-22 17:30N 48°38' W 125°37'816.1
2017-Jun-22 17:00N 48°42' W 125°48'015.7
2017-Jun-22 17:00N 48°42' W 125°48'815.6 010 / 71028.0 5.4 13.0 13.9
2017-Jun-22 16:30N 48°46' W 125°58'816.4
2017-Jun-22 16:00N 48°52' W 126°07'918.8
2017-Jun-22 15:30N 48°58' W 126°18'1020.8
2017-Jun-22 15:00N 49°04' W 126°30'6374.7
2017-Jun-22 15:00N 49°00' W 126°24'2727.5 330 / 221028.0 5.4 17.0 13.9
2017-Jun-22 14:00N 49°17' W 126°56'1615.7
2017-Jun-22 13:00N 49°24' W 127°18'2726.5 330 / 161027.0 5.4 12.6 13.7
2017-Jun-22 12:00N 49°42' W 127°48'10 9.8 340 / 261028.0 5.4 12.5 12.7
2017-Jun-22 11:00N 49°48' W 128°00'4321.5 350 / 261029.0 5.4 12.6 13.6
2017-Jun-22 09:00N 50°18' W 128°48'2322.6 350 / 161025.0 2.2 10.0 10.0
2017-Jun-22 08:00N 50°30' W 129°18'3635.8 350 / 141025.0 5.4 10.0 10.0
2017-Jun-22 07:00N 50°54' W 130°00'2323.5 320 / 81032.0 5.4 11.0 13.7
2017-Jun-22 06:00N 51°12' W 130°24'6616.4 310 / 91032.0 5.4 11.0 13.5
2017-Jun-22 02:00N 52°00' W 131°36'3316.3 230 / 201031.0 2.2 10.0 12.0
2017-Jun-22 00:00N 52°24' W 132°12'6029.8 220 / 221023.0 2.2 10.0 10.0
2017-Jun-21 22:00N 53°18' W 132°54'9 9.3 230 / 201022.0 2.2 10.0 12.0
2017-Jun-21 21:00N 53°24' W 133°06'2626.3 220 / 221023.0 2.2 10.0 10.0
2017-Jun-21 20:00N 53°48' W 133°24'2120.9 230 / 251022.0 5.4 15.0 12.0
2017-Jun-21 19:00N 54°06' W 133°42'6220.5 220 / 221025.0 2.2 10.0 13.2
2017-Jun-21 16:00N 55°06' W 134°06'3115.4 220 / 191021.0 2.2 10.0 13.2
2017-Jun-21 14:00N 55°36' W 134°18'2424.2 200 / 151019.0 10.0 13.6
2017-Jun-21 13:00N 56°00' W 134°24'3618.1 200 / 151019.0 10.0 13.6
2017-Jun-21 11:00N 56°36' W 134°30'1212.0 130 / 141014.0 5.4 10.0 11.0
2017-Jun-21 10:00N 56°48' W 134°30'2524.9 150 / 121015.0 2.2 12.0 10.0
2017-Jun-21 09:00N 57°12' W 134°42'3030.2 150 / 111018.0 5.4 10.0 10.0
2017-Jun-21 08:00N 57°42' W 134°48'1212.0 200 / 121016.0 5.4 11.0 13.0
2017-Jun-21 07:00N 57°54' W 134°48'1212.4 130 / 31017.0 5.4 11.0 14.3
2017-Jun-21 06:00N 58°06' W 134°54'2424.2 170 / 111016.0 5.4 11.0 14.3
2017-Jun-21 05:00N 58°30' W 135°00'2524.8 170 / 131015.0 5.4 11.0 14.2
2017-Jun-21 04:00N 58°54' W 135°12'2412.1 190 / 191015.0 13.4 14.4
2017-Jun-21 02:00N 59°18' W 135°18'6 0.6 210 / 241013.0 5.4 14.3 14.1
2017-Jun-20 16:00N 59°24' W 135°18'6 2.0 180 / 181012.0 5.4 10.7 13.5
2017-Jun-20 13:00N 59°18' W 135°18'3115.3 200 / 201010.0 15.8 14.1
2017-Jun-20 11:00N 58°48' W 135°06'18 9.1 150 / 151006.0 5.4 10.0 10.0
2017-Jun-20 09:00N 58°30' W 135°00'2222.0 130 / 181006.0 5.4 10.0 10.0
2017-Jun-20 08:00N 58°12' W 134°36'1414.0 090 / 101009.0 2.2 11.0 13.7
2017-Jun-20 07:00N 58°06' W 134°12'7 2.3 150 / 201009.0 2.2 11.0 13.3
2017-Jun-20 04:00N 58°12' W 134°18'3 0.6 100 / 101009.0 16.4
2017-Jun-19 23:00N 58°12' W 134°24'29 7.2 120 / 221008.0 5.4 10.0 10.0
2017-Jun-19 19:00N 57°48' W 133°54'3115.7 110 / 111010.0 5.4 11.0 12.7
2017-Jun-19 17:00N 57°30' W 133°06'10 4.8 320 / 51009.0 5.4 10.0 10.4
2017-Jun-19 15:00N 57°30' W 132°48'10 9.7 140 / 71008.0 11.2 13.2
2017-Jun-19 14:00N 57°30' W 133°06'2020.1 140 / 71008.0 11.2 13.2
2017-Jun-19 13:00N 57°42' W 133°36'2512.4 010 / 71009.0 11.2 13.2
2017-Jun-19 11:00N 57°18' W 133°48'2222.2 120 / 21005.0 2.2 10.0 10.0
2017-Jun-19 10:00N 57°00' W 134°12'2524.9 080 / 181005.0 5.4 12.0 11.0
2017-Jun-19 09:00N 56°36' W 134°24'3819.2 360 / 151005.0 12.0 10.0
2017-Jun-19 07:00N 56°00' W 134°00'1615.6 060 / 51010.0 5.4 14.0 13.1
2017-Jun-19 06:00N 56°12' W 133°42'1514.6 140 / 21011.0 5.4 15.0 13.8
2017-Jun-19 05:00N 56°18' W 133°18'6320.9 150 / 151012.0 5.4 17.0 13.8
2017-Jun-19 02:00N 55°30' W 132°06'1818.2 090 / 71014.0 5.4 16.6 16.0
2017-Jun-19 01:00N 55°18' W 131°42'3 0.9 130 / 111015.0 18.4 15.9
2017-Jun-18 21:00N 55°18' W 131°36'0 0.0 140 / 101013.0 5.4 15.0 15.0
2017-Jun-18 19:00N 55°18' W 131°36'0 0.0 1017.0 5.4 17.0 15.1
2017-Jun-18 16:00N 55°18' W 131°36'25 6.2 1014.0 5.4 15.0 15.1
2017-Jun-18 12:00N 55°00' W 131°06'2424.2 010 / 71019.3 5.4 10.7 14.7
2017-Jun-18 11:00N 54°36' W 131°12'1818.3 1015.010.8 14.0 12.0
2017-Jun-18 10:00N 54°18' W 131°06'4314.4 350 / 71015.0 5.4 15.0 15.0
2017-Jun-18 07:00N 53°36' W 130°48'1818.4 040 / 71015.0 5.4 11.0 14.8
2017-Jun-18 06:00N 53°18' W 130°42'1919.4 040 / 81015.0 5.4 11.2 14.8
2017-Jun-18 05:00N 53°00' W 130°30'1312.5 190 / 41019.0 5.4 12.6 15.0
2017-Jun-18 04:00N 52°48' W 130°24'2626.4 200 / 51015.0 5.4 12.0 15.0
2017-Jun-18 03:00N 52°24' W 130°06'1312.5 110 / 61021.0 12.8 14.5
2017-Jun-18 02:00N 52°12' W 130°00'7117.7 130 / 61020.0 5.4 13.5 14.7
2017-Jun-17 22:00N 51°06' W 129°18'1312.6 160 / 101016.0 5.4 13.0 12.0
2017-Jun-17 21:00N 50°54' W 129°12'2121.3 160 / 131016.0 2.2 12.0 12.0
2017-Jun-17 20:00N 50°36' W 128°54'3316.6 170 / 151016.010.8 12.0 12.0
2017-Jun-17 18:00N 50°12' W 128°18'2423.7 170 / 131016.0 5.4 12.0 14.2
2017-Jun-17 17:00N 49°54' W 127°54'4 3.9 170 / 81017.0 5.4 12.0 14.2
2017-Jun-17 16:00N 49°54' W 127°48'6621.9 180 / 81017.0 5.4 12.0 14.2
2017-Jun-17 13:00N 49°12' W 126°30'10 9.9 240 / 41020.0 12.6 14.7
2017-Jun-17 12:00N 49°06' W 126°18'1 9.0 240 / 41020.0 12.6 14.5
2017-Jun-17 11:53N 49°07' W 126°19'817.2
2017-Jun-17 11:24N 49°02' W 126°09'717.1
2017-Jun-17 11:01N 48°58' W 126°01'4217.5
2017-Jun-17 11:00N 48°54' W 126°00'613.4 290 / 31021.427.0 12.5 14.2
2017-Jun-17 10:30N 48°52' W 125°50'817.0
2017-Jun-17 10:01N 48°47' W 125°40'6348.2
2017-Jun-17 10:00N 48°42' W 125°36'4 8.1 270 / 51022.0 12.0 13.4
2017-Jun-17 09:31N 48°42' W 125°30'917.1
2017-Jun-17 09:01N 48°37' W 125°20'180.6
2017-Jun-17 09:00N 48°36' W 125°18'715.2 270 / 91022.027.0 12.4 13.8
2017-Jun-17 08:30N 48°31' W 125°09'918.1
2017-Jun-17 08:01N 48°31' W 124°56'299.3
2017-Jun-17 08:00N 48°30' W 124°54'714.8 280 / 91022.027.0 12.4 14.0
2017-Jun-17 07:30N 48°30' W 124°43'815.6
2017-Jun-17 07:01N 48°27' W 124°32'10607.4
2017-Jun-17 07:00N 48°24' W 124°18'2 3.6 250 / 141017.0 5.4 11.0 13.5
2017-Jun-17 06:30N 48°24' W 124°21'816.9
2017-Jun-17 06:01N 48°21' W 124°09'816.7
2017-Jun-17 05:31N 48°18' W 123°57'816.1
2017-Jun-17 05:01N 48°16' W 123°45'5284.9
2017-Jun-17 05:00N 48°12' W 123°48'1317.6 290 / 251015.0 5.4 12.0 13.2
2017-Jun-17 04:15N 48°14' W 123°29'415.1
2017-Jun-17 04:00N 48°12' W 123°24'5 9.8
2017-Jun-17 03:30N 48°09' W 123°18'510.3
2017-Jun-17 03:00N 48°06' W 123°12'7826.6 280 / 251014.0 5.4 12.0 13.6
2017-Jun-17 02:59N 48°13' W 123°07'815.4
2017-Jun-17 02:29N 48°12' W 122°56'1429.4
2017-Jun-17 02:00N 48°06' W 122°36'7131.1 340 / 201018.2 15.2 15.1
2017-Jun-17 01:56N 48°10' W 122°44'1014.4
2017-Jun-17 01:16N 48°01' W 122°37'415.5
2017-Jun-17 01:00N 47°58' W 122°34'5343.7
2017-Jun-17 01:00N 47°54' W 122°30'3 6.2 340 / 201018.2 15.2 15.1
2017-Jun-17 00:30N 47°51' W 122°28'917.1
2017-Jun-17 00:00N 47°43' W 122°27'2140.2
2017-Jun-17 00:00N 47°42' W 122°24'5 9.7 160 / 161018.2 17.8 15.1
2017-Jun-16 23:31N 47°37' W 122°23'0 0.7
2017-Jun-16 22:59N 47°38' W 122°23'0 0.0
2017-Jun-16 22:29N 47°38' W 122°23'0 0.0
2017-Jun-16 21:56N 47°38' W 122°23'0 0.0
2017-Jun-16 21:30N 47°38' W 122°23'0 0.0
2017-Jun-16 20:59N 47°38' W 122°23'0 0.0
2017-Jun-16 20:29N 47°38' W 122°23'4 7.8
2017-Jun-16 20:00N 47°36' W 122°18'4916.8 210 / 121015.010.8 10.0 16.0
2017-Jun-16 19:59N 47°38' W 122°23'0 0.0
2017-Jun-16 19:29N 47°38' W 122°23'4 7.8
2017-Jun-16 19:00N 47°36' W 122°18'44583.9 200 / 121014.0 5.4 15.3 14.9
2017-Jun-16 18:59N 47°38' W 122°23'0 0.0
2017-Jun-16 18:29N 47°38' W 122°23'0 0.0
2017-Jun-16 18:00N 47°38' W 122°23'41375.2
2017-Jun-16 18:00N 47°36' W 122°18'4 7.7 200 / 81013.0 5.4 15.0 14.6
2017-Jun-16 17:30N 47°38' W 122°23'4 7.5
2017-Jun-16 17:00N 47°36' W 122°18'413751.7 200 / 81013.0 5.4 13.8 14.7
2017-Jun-16 16:59N 47°38' W 122°23'0 0.0
2017-Jun-16 16:29N 47°38' W 122°23'4 7.7
2017-Jun-16 16:00N 47°36' W 122°18'41057.8 200 / 61015.0 5.4 13.8 14.5
2017-Jun-16 15:59N 47°38' W 122°23'0 0.0
2017-Jun-16 15:29N 47°38' W 122°23'0 0.0
2017-Jun-16 14:59N 47°38' W 122°23'0 0.0
2017-Jun-16 13:59N 47°38' W 122°23'0 0.0
2017-Jun-16 13:29N 47°38' W 122°23'0 0.0
2017-Jun-16 12:59N 47°38' W 122°23'0 0.6
2017-Jun-16 12:30N 47°37' W 122°23'4 8.0
2017-Jun-16 12:00N 47°39' W 122°28'4228.8
2017-Jun-16 12:00N 47°42' W 122°24'510.5 150 / 81015.0 13.8
2017-Jun-16 11:30N 47°47' W 122°27'715.0
2017-Jun-16 11:00N 47°54' W 122°29'714.9
2017-Jun-16 10:30N 47°60' W 122°37'815.2
2017-Jun-16 10:01N 48°07' W 122°40'179.6
2017-Jun-16 10:00N 48°06' W 122°42'714.9 250 / 151008.0 2.2 10.0 10.0
2017-Jun-16 09:30N 48°11' W 122°50'815.8
2017-Jun-16 09:01N 48°12' W 123°02'168.9
2017-Jun-16 09:00N 48°12' W 123°00'918.5 270 / 181008.0 5.4 16.0 15.0
2017-Jun-16 08:30N 48°11' W 123°13'714.7
2017-Jun-16 08:00N 48°10' W 123°24'713.8
2017-Jun-16 07:29N 48°16' W 123°30'817.0
2017-Jun-16 07:00N 48°23' W 123°24'171.6
2017-Jun-16 07:00N 48°24' W 123°24'4 4.0 270 / 251007.0 5.4 14.0 13.3
2017-Jun-16 06:00N 48°24' W 123°18'4 5.3 280 / 101007.0 5.4 15.0 13.3
2017-Jun-16 05:18N 48°25' W 123°23'0 0.0
2017-Jun-16 05:00N 48°25' W 123°23'41660.6
2017-Jun-16 05:00N 48°24' W 123°18'4 7.3 1006.0 5.4 14.0 13.3
2017-Jun-16 04:29N 48°25' W 123°23'0 0.0
2017-Jun-16 03:59N 48°25' W 123°23'0 0.0
2017-Jun-16 03:29N 48°25' W 123°23'0 0.0
2017-Jun-16 03:00N 48°25' W 123°23'0 0.0
2017-Jun-16 02:30N 48°25' W 123°23'0 0.0
2017-Jun-16 02:00N 48°25' W 123°23'4632.6
2017-Jun-16 02:00N 48°24' W 123°18'4 7.6 240 / 31008.0 15.0 13.0
2017-Jun-16 01:30N 48°25' W 123°23'4 7.2
2017-Jun-16 01:00N 48°24' W 123°18'4492.0 240 / 31008.0 14.9 13.0
2017-Jun-16 00:59N 48°25' W 123°23'0 0.0
2017-Jun-16 00:30N 48°25' W 123°23'0 0.0
2017-Jun-16 00:00N 48°25' W 123°23'4 7.4
2017-Jun-15 23:30N 48°21' W 123°24'917.1
2017-Jun-15 23:00N 48°14' W 123°30'1020.0
2017-Jun-15 22:30N 48°14' W 123°46'1019.5
2017-Jun-15 22:00N 48°15' W 123°60'1122.3
2017-Jun-15 21:30N 48°20' W 124°15'1121.6
2017-Jun-15 21:00N 48°25' W 124°29'142.6
2017-Jun-15 21:00N 48°24' W 124°30'1021.1 120 / 231000.0 1.1 12.0 10.0
2017-Jun-15 20:30N 48°28' W 124°44'1020.9
2017-Jun-15 20:00N 48°29' W 124°60'6455.0
2017-Jun-15 20:00N 48°24' W 124°54'1728.4 170 / 521000.0 2.2 12.0 13.3
2017-Jun-15 19:23N 48°31' W 125°18'1333.4
2017-Jun-15 19:00N 48°36' W 125°36'10 9.9 150 / 47996.0 2.2 12.0 13.2
2017-Jun-15 18:00N 48°42' W 125°48'1313.3 150 / 38996.0 2.2 12.0 14.0
2017-Jun-15 17:00N 48°48' W 126°06'4321.7 120 / 50995.0 2.2 12.0 14.0
2017-Jun-15 15:00N 49°18' W 126°54'3618.0 120 / 50997.1 12.5 13.4
2017-Jun-15 13:00N 49°36' W 127°42'1716.7 120 / 461000.0 12.6 13.6
2017-Jun-15 12:00N 49°48' W 128°00'1716.7 130 / 401001.0 12.6 13.6
2017-Jun-15 11:00N 50°00' W 128°18'1313.0 140 / 321002.0 12.6 13.6
2017-Jun-15 10:00N 50°06' W 128°36'4622.8 160 / 401007.0 5.4 10.0 10.0
2017-Jun-15 08:00N 50°36' W 129°30'1919.4 150 / 341008.0 2.2 10.0 10.0
2017-Jun-15 07:00N 50°48' W 129°54'1716.5 150 / 271001.0 5.4 11.0 13.7
2017-Jun-15 06:00N 51°00' W 130°12'1616.5 160 / 171003.0 5.4 11.0 13.7
2017-Jun-15 05:00N 51°12' W 130°30'2323.4 190 / 221003.0 5.4 10.0 13.2
2017-Jun-15 04:00N 51°30' W 130°54'3316.4 200 / 221003.0 5.4 10.0 13.2
2017-Jun-15 02:00N 51°54' W 131°30'2121.1 180 / 201007.0 12.0
2017-Jun-15 01:00N 52°12' W 131°48'1919.0 190 / 211008.8 5.4 12.2 13.3
2017-Jun-15 00:00N 52°24' W 132°12'3333.3 180 / 201007.5 11.8 13.0
2017-Jun-14 23:00N 52°54' W 132°36'2814.0 180 / 181008.0 2.2 12.0 11.0
2017-Jun-14 21:00N 53°18' W 133°00'2121.0 180 / 221006.0 2.2 10.0 8.0
2017-Jun-14 20:00N 53°36' W 133°18'1919.3 200 / 311006.0 2.2 10.0 8.0
2017-Jun-14 19:00N 53°54' W 133°30'2525.0 190 / 30999.0 5.4 10.0 12.5
2017-Jun-14 18:00N 54°18' W 133°42'3215.9 100 / 34997.0 5.4 10.0 12.5
2017-Jun-14 16:00N 54°48' W 134°00'4321.6 100 / 401000.0 5.4 10.0 12.5
2017-Jun-14 14:00N 55°30' W 134°18'1818.3 090 / 261008.0 5.4 10.8 12.9
2017-Jun-14 13:00N 55°48' W 134°24'2424.0 080 / 231010.5 5.4 10.1 12.5
2017-Jun-14 12:00N 56°12' W 134°24'3618.1 030 / 171012.0 9.7 12.7
2017-Jun-14 10:00N 56°48' W 134°30'1919.2 030 / 151012.0 5.4 10.0 10.0
2017-Jun-14 09:00N 57°06' W 134°42'2424.0 330 / 21011.0 2.2 10.0 10.0
2017-Jun-14 08:00N 57°30' W 134°42'1212.4 150 / 71009.0 5.4 10.0 13.6
2017-Jun-14 07:00N 57°42' W 134°48'2424.2 070 / 51010.0 5.4 10.0 13.5
2017-Jun-14 06:00N 58°06' W 134°54'   120 / 51010.0 5.4 9.0 13.2
Track history (hours):
 
Tides and Currents Weather Stations Pressure Air Temp Water Temp Dewpoint Dewpoint Depression Visibility Wind Speed Wind Dir Waves Ship Positions

Celebrity Solstice

Last reported at 2017-Jun-24 05:00 UTC. Time now 2017-Jun-24 05:20 UTC.
Position N 48°19' W 124°01'.

Length 317 m; draft 9 m.

Type: Ship. MMSI: 249409000.

Date/timePositionNaut miles runAvg speedWind from/ knotsBaromVisibWave heightAir tempDewpointWater temp
2017-Jun-24 05:00N 48°19' W 124°01'917.8
2017-Jun-24 04:30N 48°17' W 123°49'1018.4
2017-Jun-24 03:59N 48°15' W 123°35'816.4
2017-Jun-24 03:30N 48°12' W 123°24'510.8
2017-Jun-24 03:00N 48°11' W 123°16'917.1
2017-Jun-24 02:30N 48°12' W 123°03'917.5
2017-Jun-24 02:00N 48°11' W 122°50'7523.5
2017-Jun-24 02:00N 48°12' W 123°00'1529.3 230 / 61021.010.8 22.4 14.4
2017-Jun-24 01:30N 48°07' W 122°39'815.8
2017-Jun-24 01:01N 47°60' W 122°36'7410.6
2017-Jun-24 01:00N 47°54' W 122°30'1 1.9 330 / 211020.010.8 22.1 14.8
2017-Jun-24 00:30N 47°54' W 122°29'815.2
2017-Jun-24 00:00N 47°46' W 122°26'4591.5
2017-Jun-24 00:00N 47°42' W 122°24'4 7.8 350 / 231020.0 5.4 22.1 15.4
2017-Jun-23 23:30N 47°39' W 122°27'3 5.1
2017-Jun-23 23:00N 47°38' W 122°23'0 0.0
2017-Jun-23 22:30N 47°38' W 122°23'0 0.0
2017-Jun-23 22:00N 47°38' W 122°23'0 0.0
2017-Jun-23 21:30N 47°38' W 122°23'0 0.0
2017-Jun-23 21:00N 47°38' W 122°23'4443.6
2017-Jun-23 21:00N 47°36' W 122°18'4 7.7 010 / 181018.0 5.4 23.0 14.9
2017-Jun-23 20:30N 47°38' W 122°23'0 0.0
2017-Jun-23 20:00N 47°38' W 122°23'4597.9
2017-Jun-23 20:00N 47°36' W 122°18'4 7.8 350 / 121024.0 5.4 21.0 14.5
2017-Jun-23 19:30N 47°38' W 122°23'0 0.0
2017-Jun-23 19:00N 47°38' W 122°23'4573.0
2017-Jun-23 19:00N 47°36' W 122°18'4 7.7 350 / 121024.0 5.4 20.0 14.5
2017-Jun-23 18:30N 47°38' W 122°23'0 0.0
2017-Jun-23 18:00N 47°38' W 122°23'0 0.0
2017-Jun-23 17:30N 47°38' W 122°23'0 0.0
2017-Jun-23 17:00N 47°38' W 122°23'0 0.0
2017-Jun-23 16:30N 47°38' W 122°23'0 0.0
2017-Jun-23 16:00N 47°38' W 122°23'4233.1
2017-Jun-23 16:00N 47°36' W 122°18'4 7.7 010 / 111025.0 5.4 18.0 14.5
2017-Jun-23 15:30N 47°38' W 122°23'0 0.0
2017-Jun-23 15:00N 47°38' W 122°23'0 0.0
2017-Jun-23 14:00N 47°38' W 122°23'0 0.0
2017-Jun-23 13:30N 47°38' W 122°23'0 0.0
2017-Jun-23 13:00N 47°38' W 122°23'1 2.5
2017-Jun-23 12:30N 47°37' W 122°25'612.4
2017-Jun-23 12:00N 47°43' W 122°28'714.7
2017-Jun-23 11:30N 47°51' W 122°28'713.8
2017-Jun-23 11:00N 47°57' W 122°33'714.3
2017-Jun-23 10:30N 48°03' W 122°39'714.0
2017-Jun-23 10:00N 48°09' W 122°44'109411.6
2017-Jun-23 10:00N 48°00' W 122°36'1734.2 020 / 151020.0 5.4 10.0 10.0
2017-Jun-23 09:30N 48°11' W 122°54'714.8
2017-Jun-23 09:00N 48°12' W 123°05'714.8
2017-Jun-23 08:30N 48°10' W 123°16'612.0
2017-Jun-23 08:00N 48°10' W 123°25'714.3
2017-Jun-23 07:30N 48°17' W 123°28'714.7
2017-Jun-23 07:00N 48°24' W 123°24'4 4.1
2017-Jun-23 06:00N 48°24' W 123°18'0 0.0 1025.0 5.4 16.0 13.3
2017-Jun-23 02:00N 48°24' W 123°18'4 1.9 200 / 81024.0 17.1 13.0
2017-Jun-23 00:00N 48°25' W 123°23'2 3.8
2017-Jun-22 23:30N 48°23' W 123°25'714.8
2017-Jun-22 23:00N 48°16' W 123°26'816.9
2017-Jun-22 22:30N 48°14' W 123°38'917.0
2017-Jun-22 22:00N 48°13' W 123°51'6401.4
2017-Jun-22 22:00N 48°12' W 123°42'1529.8 110 / 131021.0 2.2 10.0 10.0
2017-Jun-22 21:29N 48°16' W 124°04'917.9
2017-Jun-22 21:00N 48°20' W 124°15'917.5
2017-Jun-22 20:28N 48°24' W 124°28'817.3
2017-Jun-22 20:00N 48°27' W 124°39'816.4
2017-Jun-22 19:30N 48°29' W 124°51'816.5
2017-Jun-22 19:00N 48°29' W 125°04'5385.9
2017-Jun-22 19:00N 48°24' W 125°06'919.1 290 / 21028.0 5.4 12.0 13.5
2017-Jun-22 18:30N 48°31' W 125°16'816.0
2017-Jun-22 18:00N 48°35' W 125°26'3209.2
2017-Jun-22 18:00N 48°36' W 125°30'510.4 130 / 71028.0 5.4 11.0 13.9
2017-Jun-22 17:30N 48°38' W 125°37'816.1
2017-Jun-22 17:00N 48°42' W 125°48'015.7
2017-Jun-22 17:00N 48°42' W 125°48'815.6 010 / 71028.0 5.4 13.0 13.9
2017-Jun-22 16:30N 48°46' W 125°58'816.4
2017-Jun-22 16:00N 48°52' W 126°07'918.8
2017-Jun-22 15:30N 48°58' W 126°18'1020.8
2017-Jun-22 15:00N 49°04' W 126°30'6374.7
2017-Jun-22 15:00N 49°00' W 126°24'2727.5 330 / 221028.0 5.4 17.0 13.9
2017-Jun-22 14:00N 49°17' W 126°56'1615.7
2017-Jun-22 13:00N 49°24' W 127°18'2726.5 330 / 161027.0 5.4 12.6 13.7
2017-Jun-22 12:00N 49°42' W 127°48'10 9.8 340 / 261028.0 5.4 12.5 12.7
2017-Jun-22 11:00N 49°48' W 128°00'4321.5 350 / 261029.0 5.4 12.6 13.6
2017-Jun-22 09:00N 50°18' W 128°48'2322.6 350 / 161025.0 2.2 10.0 10.0
2017-Jun-22 08:00N 50°30' W 129°18'3635.8 350 / 141025.0 5.4 10.0 10.0
2017-Jun-22 07:00N 50°54' W 130°00'2323.5 320 / 81032.0 5.4 11.0 13.7
2017-Jun-22 06:00N 51°12' W 130°24'6616.4 310 / 91032.0 5.4 11.0 13.5
2017-Jun-22 02:00N 52°00' W 131°36'3316.3 230 / 201031.0 2.2 10.0 12.0
2017-Jun-22 00:00N 52°24' W 132°12'6029.8 220 / 221023.0 2.2 10.0 10.0
2017-Jun-21 22:00N 53°18' W 132°54'9 9.3 230 / 201022.0 2.2 10.0 12.0
2017-Jun-21 21:00N 53°24' W 133°06'2626.3 220 / 221023.0 2.2 10.0 10.0
2017-Jun-21 20:00N 53°48' W 133°24'2120.9 230 / 251022.0 5.4 15.0 12.0
2017-Jun-21 19:00N 54°06' W 133°42'6220.5 220 / 221025.0 2.2 10.0 13.2
2017-Jun-21 16:00N 55°06' W 134°06'3115.4 220 / 191021.0 2.2 10.0 13.2
2017-Jun-21 14:00N 55°36' W 134°18'2424.2 200 / 151019.0 10.0 13.6
2017-Jun-21 13:00N 56°00' W 134°24'3618.1 200 / 151019.0 10.0 13.6
2017-Jun-21 11:00N 56°36' W 134°30'1212.0 130 / 141014.0 5.4 10.0 11.0
2017-Jun-21 10:00N 56°48' W 134°30'2524.9 150 / 121015.0 2.2 12.0 10.0
2017-Jun-21 09:00N 57°12' W 134°42'3030.2 150 / 111018.0 5.4 10.0 10.0
2017-Jun-21 08:00N 57°42' W 134°48'1212.0 200 / 121016.0 5.4 11.0 13.0
2017-Jun-21 07:00N 57°54' W 134°48'1212.4 130 / 31017.0 5.4 11.0 14.3
2017-Jun-21 06:00N 58°06' W 134°54'2424.2 170 / 111016.0 5.4 11.0 14.3
2017-Jun-21 05:00N 58°30' W 135°00'2524.8 170 / 131015.0 5.4 11.0 14.2
2017-Jun-21 04:00N 58°54' W 135°12'2412.1 190 / 191015.0 13.4 14.4
2017-Jun-21 02:00N 59°18' W 135°18'6 0.6 210 / 241013.0 5.4 14.3 14.1
2017-Jun-20 16:00N 59°24' W 135°18'6 2.0 180 / 181012.0 5.4 10.7 13.5
2017-Jun-20 13:00N 59°18' W 135°18'3115.3 200 / 201010.0 15.8 14.1
2017-Jun-20 11:00N 58°48' W 135°06'18 9.1 150 / 151006.0 5.4 10.0 10.0
2017-Jun-20 09:00N 58°30' W 135°00'2222.0 130 / 181006.0 5.4 10.0 10.0
2017-Jun-20 08:00N 58°12' W 134°36'1414.0 090 / 101009.0 2.2 11.0 13.7
2017-Jun-20 07:00N 58°06' W 134°12'7 2.3 150 / 201009.0 2.2 11.0 13.3
2017-Jun-20 04:00N 58°12' W 134°18'3 0.6 100 / 101009.0 16.4
2017-Jun-19 23:00N 58°12' W 134°24'29 7.2 120 / 221008.0 5.4 10.0 10.0
2017-Jun-19 19:00N 57°48' W 133°54'3115.7 110 / 111010.0 5.4 11.0 12.7
2017-Jun-19 17:00N 57°30' W 133°06'10 4.8 320 / 51009.0 5.4 10.0 10.4
2017-Jun-19 15:00N 57°30' W 132°48'10 9.7 140 / 71008.0 11.2 13.2
2017-Jun-19 14:00N 57°30' W 133°06'2020.1 140 / 71008.0 11.2 13.2
2017-Jun-19 13:00N 57°42' W 133°36'2512.4 010 / 71009.0 11.2 13.2
2017-Jun-19 11:00N 57°18' W 133°48'2222.2 120 / 21005.0 2.2 10.0 10.0
2017-Jun-19 10:00N 57°00' W 134°12'2524.9 080 / 181005.0 5.4 12.0 11.0
2017-Jun-19 09:00N 56°36' W 134°24'3819.2 360 / 151005.0 12.0 10.0
2017-Jun-19 07:00N 56°00' W 134°00'1615.6 060 / 51010.0 5.4 14.0 13.1
2017-Jun-19 06:00N 56°12' W 133°42'1514.6 140 / 21011.0 5.4 15.0 13.8
2017-Jun-19 05:00N 56°18' W 133°18'6320.9 150 / 151012.0 5.4 17.0 13.8
2017-Jun-19 02:00N 55°30' W 132°06'1818.2 090 / 71014.0 5.4 16.6 16.0
2017-Jun-19 01:00N 55°18' W 131°42'3 0.9 130 / 111015.0 18.4 15.9
2017-Jun-18 21:00N 55°18' W 131°36'0 0.0 140 / 101013.0 5.4 15.0 15.0
2017-Jun-18 19:00N 55°18' W 131°36'0 0.0 1017.0 5.4 17.0 15.1
2017-Jun-18 16:00N 55°18' W 131°36'25 6.2 1014.0 5.4 15.0 15.1
2017-Jun-18 12:00N 55°00' W 131°06'2424.2 010 / 71019.3 5.4 10.7 14.7
2017-Jun-18 11:00N 54°36' W 131°12'1818.3 1015.010.8 14.0 12.0
2017-Jun-18 10:00N 54°18' W 131°06'4314.4 350 / 71015.0 5.4 15.0 15.0
2017-Jun-18 07:00N 53°36' W 130°48'1818.4 040 / 71015.0 5.4 11.0 14.8
2017-Jun-18 06:00N 53°18' W 130°42'1919.4 040 / 81015.0 5.4 11.2 14.8
2017-Jun-18 05:00N 53°00' W 130°30'1312.5 190 / 41019.0 5.4 12.6 15.0
2017-Jun-18 04:00N 52°48' W 130°24'2626.4 200 / 51015.0 5.4 12.0 15.0
2017-Jun-18 03:00N 52°24' W 130°06'1312.5 110 / 61021.0 12.8 14.5
2017-Jun-18 02:00N 52°12' W 130°00'7117.7 130 / 61020.0 5.4 13.5 14.7
2017-Jun-17 22:00N 51°06' W 129°18'1312.6 160 / 101016.0 5.4 13.0 12.0
2017-Jun-17 21:00N 50°54' W 129°12'2121.3 160 / 131016.0 2.2 12.0 12.0
2017-Jun-17 20:00N 50°36' W 128°54'3316.6 170 / 151016.010.8 12.0 12.0
2017-Jun-17 18:00N 50°12' W 128°18'2423.7 170 / 131016.0 5.4 12.0 14.2
2017-Jun-17 17:00N 49°54' W 127°54'4 3.9 170 / 81017.0 5.4 12.0 14.2
2017-Jun-17 16:00N 49°54' W 127°48'6621.9 180 / 81017.0 5.4 12.0 14.2
2017-Jun-17 13:00N 49°12' W 126°30'10 9.9 240 / 41020.0 12.6 14.7
2017-Jun-17 12:00N 49°06' W 126°18'1 9.0 240 / 41020.0 12.6 14.5
2017-Jun-17 11:53N 49°07' W 126°19'817.2
2017-Jun-17 11:24N 49°02' W 126°09'717.1
2017-Jun-17 11:01N 48°58' W 126°01'4217.5
2017-Jun-17 11:00N 48°54' W 126°00'613.4 290 / 31021.427.0 12.5 14.2
2017-Jun-17 10:30N 48°52' W 125°50'817.0
2017-Jun-17 10:01N 48°47' W 125°40'6348.2
2017-Jun-17 10:00N 48°42' W 125°36'4 8.1 270 / 51022.0 12.0 13.4
2017-Jun-17 09:31N 48°42' W 125°30'917.1
2017-Jun-17 09:01N 48°37' W 125°20'180.6
2017-Jun-17 09:00N 48°36' W 125°18'715.2 270 / 91022.027.0 12.4 13.8
2017-Jun-17 08:30N 48°31' W 125°09'918.1
2017-Jun-17 08:01N 48°31' W 124°56'299.3
2017-Jun-17 08:00N 48°30' W 124°54'714.8 280 / 91022.027.0 12.4 14.0
2017-Jun-17 07:30N 48°30' W 124°43'815.6
2017-Jun-17 07:01N 48°27' W 124°32'10607.4
2017-Jun-17 07:00N 48°24' W 124°18'2 3.6 250 / 141017.0 5.4 11.0 13.5
2017-Jun-17 06:30N 48°24' W 124°21'816.9
2017-Jun-17 06:01N 48°21' W 124°09'816.7
2017-Jun-17 05:31N 48°18' W 123°57'816.1
2017-Jun-17 05:01N 48°16' W 123°45'5284.9
2017-Jun-17 05:00N 48°12' W 123°48'1317.6 290 / 251015.0 5.4 12.0 13.2
2017-Jun-17 04:15N 48°14' W 123°29'415.1
2017-Jun-17 04:00N 48°12' W 123°24'5 9.8
2017-Jun-17 03:30N 48°09' W 123°18'510.3
2017-Jun-17 03:00N 48°06' W 123°12'7826.6 280 / 251014.0 5.4 12.0 13.6
2017-Jun-17 02:59N 48°13' W 123°07'815.4
2017-Jun-17 02:29N 48°12' W 122°56'1429.4
2017-Jun-17 02:00N 48°06' W 122°36'7131.1 340 / 201018.2 15.2 15.1
2017-Jun-17 01:56N 48°10' W 122°44'1014.4
2017-Jun-17 01:16N 48°01' W 122°37'415.5
2017-Jun-17 01:00N 47°58' W 122°34'5343.7
2017-Jun-17 01:00N 47°54' W 122°30'3 6.2 340 / 201018.2 15.2 15.1
2017-Jun-17 00:30N 47°51' W 122°28'917.1
2017-Jun-17 00:00N 47°43' W 122°27'2140.2
2017-Jun-17 00:00N 47°42' W 122°24'5 9.7 160 / 161018.2 17.8 15.1
2017-Jun-16 23:31N 47°37' W 122°23'0 0.7
2017-Jun-16 22:59N 47°38' W 122°23'0 0.0
2017-Jun-16 22:29N 47°38' W 122°23'0 0.0
2017-Jun-16 21:56N 47°38' W 122°23'0 0.0
2017-Jun-16 21:30N 47°38' W 122°23'0 0.0
2017-Jun-16 20:59N 47°38' W 122°23'0 0.0
2017-Jun-16 20:29N 47°38' W 122°23'4 7.8
2017-Jun-16 20:00N 47°36' W 122°18'4916.8 210 / 121015.010.8 10.0 16.0
2017-Jun-16 19:59N 47°38' W 122°23'0 0.0
2017-Jun-16 19:29N 47°38' W 122°23'4 7.8
2017-Jun-16 19:00N 47°36' W 122°18'44583.9 200 / 121014.0 5.4 15.3 14.9
2017-Jun-16 18:59N 47°38' W 122°23'0 0.0
2017-Jun-16 18:29N 47°38' W 122°23'0 0.0
2017-Jun-16 18:00N 47°38' W 122°23'41375.2
2017-Jun-16 18:00N 47°36' W 122°18'4 7.7 200 / 81013.0 5.4 15.0 14.6
2017-Jun-16 17:30N 47°38' W 122°23'4 7.5
2017-Jun-16 17:00N 47°36' W 122°18'413751.7 200 / 81013.0 5.4 13.8 14.7
2017-Jun-16 16:59N 47°38' W 122°23'0 0.0
2017-Jun-16 16:29N 47°38' W 122°23'4 7.7
2017-Jun-16 16:00N 47°36' W 122°18'41057.8 200 / 61015.0 5.4 13.8 14.5
2017-Jun-16 15:59N 47°38' W 122°23'0 0.0
2017-Jun-16 15:29N 47°38' W 122°23'0 0.0
2017-Jun-16 14:59N 47°38' W 122°23'0 0.0
2017-Jun-16 13:59N 47°38' W 122°23'0 0.0
2017-Jun-16 13:29N 47°38' W 122°23'0 0.0
2017-Jun-16 12:59N 47°38' W 122°23'0 0.6
2017-Jun-16 12:30N 47°37' W 122°23'4 8.0
2017-Jun-16 12:00N 47°39' W 122°28'4228.8
2017-Jun-16 12:00N 47°42' W 122°24'510.5 150 / 81015.0 13.8
2017-Jun-16 11:30N 47°47' W 122°27'715.0
2017-Jun-16 11:00N 47°54' W 122°29'714.9
2017-Jun-16 10:30N 47°60' W 122°37'815.2
2017-Jun-16 10:01N 48°07' W 122°40'179.6
2017-Jun-16 10:00N 48°06' W 122°42'714.9 250 / 151008.0 2.2 10.0 10.0
2017-Jun-16 09:30N 48°11' W 122°50'815.8
2017-Jun-16 09:01N 48°12' W 123°02'168.9
2017-Jun-16 09:00N 48°12' W 123°00'918.5 270 / 181008.0 5.4 16.0 15.0
2017-Jun-16 08:30N 48°11' W 123°13'714.7
2017-Jun-16 08:00N 48°10' W 123°24'713.8
2017-Jun-16 07:29N 48°16' W 123°30'817.0
2017-Jun-16 07:00N 48°23' W 123°24'171.6
2017-Jun-16 07:00N 48°24' W 123°24'4 4.0 270 / 251007.0 5.4 14.0 13.3
2017-Jun-16 06:00N 48°24' W 123°18'4 5.3 280 / 101007.0 5.4 15.0 13.3
2017-Jun-16 05:18N 48°25' W 123°23'0 0.0
2017-Jun-16 05:00N 48°25' W 123°23'41660.6
2017-Jun-16 05:00N 48°24' W 123°18'4 7.3 1006.0 5.4 14.0 13.3
2017-Jun-16 04:29N 48°25' W 123°23'0 0.0
2017-Jun-16 03:59N 48°25' W 123°23'0 0.0
2017-Jun-16 03:29N 48°25' W 123°23'0 0.0
2017-Jun-16 03:00N 48°25' W 123°23'0 0.0
2017-Jun-16 02:30N 48°25' W 123°23'0 0.0
2017-Jun-16 02:00N 48°25' W 123°23'4632.6
2017-Jun-16 02:00N 48°24' W 123°18'4 7.6 240 / 31008.0 15.0 13.0
2017-Jun-16 01:30N 48°25' W 123°23'4 7.2
2017-Jun-16 01:00N 48°24' W 123°18'4492.0 240 / 31008.0 14.9 13.0
2017-Jun-16 00:59N 48°25' W 123°23'0 0.0
2017-Jun-16 00:30N 48°25' W 123°23'0 0.0
2017-Jun-16 00:00N 48°25' W 123°23'4 7.4
2017-Jun-15 23:30N 48°21' W 123°24'917.1
2017-Jun-15 23:00N 48°14' W 123°30'1020.0
2017-Jun-15 22:30N 48°14' W 123°46'1019.5
2017-Jun-15 22:00N 48°15' W 123°60'1122.3
2017-Jun-15 21:30N 48°20' W 124°15'1121.6
2017-Jun-15 21:00N 48°25' W 124°29'142.6
2017-Jun-15 21:00N 48°24' W 124°30'1021.1 120 / 231000.0 1.1 12.0 10.0
2017-Jun-15 20:30N 48°28' W 124°44'1020.9
2017-Jun-15 20:00N 48°29' W 124°60'6455.0
2017-Jun-15 20:00N 48°24' W 124°54'1728.4 170 / 521000.0 2.2 12.0 13.3
2017-Jun-15 19:23N 48°31' W 125°18'1333.4
2017-Jun-15 19:00N 48°36' W 125°36'10 9.9 150 / 47996.0 2.2 12.0 13.2
2017-Jun-15 18:00N 48°42' W 125°48'1313.3 150 / 38996.0 2.2 12.0 14.0
2017-Jun-15 17:00N 48°48' W 126°06'4321.7 120 / 50995.0 2.2 12.0 14.0
2017-Jun-15 15:00N 49°18' W 126°54'3618.0 120 / 50997.1 12.5 13.4
2017-Jun-15 13:00N 49°36' W 127°42'1716.7 120 / 461000.0 12.6 13.6
2017-Jun-15 12:00N 49°48' W 128°00'1716.7 130 / 401001.0 12.6 13.6
2017-Jun-15 11:00N 50°00' W 128°18'1313.0 140 / 321002.0 12.6 13.6
2017-Jun-15 10:00N 50°06' W 128°36'4622.8 160 / 401007.0 5.4 10.0 10.0
2017-Jun-15 08:00N 50°36' W 129°30'1919.4 150 / 341008.0 2.2 10.0 10.0
2017-Jun-15 07:00N 50°48' W 129°54'1716.5 150 / 271001.0 5.4 11.0 13.7
2017-Jun-15 06:00N 51°00' W 130°12'1616.5 160 / 171003.0 5.4 11.0 13.7
2017-Jun-15 05:00N 51°12' W 130°30'2323.4 190 / 221003.0 5.4 10.0 13.2
2017-Jun-15 04:00N 51°30' W 130°54'3316.4 200 / 221003.0 5.4 10.0 13.2
2017-Jun-15 02:00N 51°54' W 131°30'2121.1 180 / 201007.0 12.0
2017-Jun-15 01:00N 52°12' W 131°48'1919.0 190 / 211008.8 5.4 12.2 13.3
2017-Jun-15 00:00N 52°24' W 132°12'3333.3 180 / 201007.5 11.8 13.0
2017-Jun-14 23:00N 52°54' W 132°36'2814.0 180 / 181008.0 2.2 12.0 11.0
2017-Jun-14 21:00N 53°18' W 133°00'2121.0 180 / 221006.0 2.2 10.0 8.0
2017-Jun-14 20:00N 53°36' W 133°18'1919.3 200 / 311006.0 2.2 10.0 8.0
2017-Jun-14 19:00N 53°54' W 133°30'2525.0 190 / 30999.0 5.4 10.0 12.5
2017-Jun-14 18:00N 54°18' W 133°42'3215.9 100 / 34997.0 5.4 10.0 12.5
2017-Jun-14 16:00N 54°48' W 134°00'4321.6 100 / 401000.0 5.4 10.0 12.5
2017-Jun-14 14:00N 55°30' W 134°18'1818.3 090 / 261008.0 5.4 10.8 12.9
2017-Jun-14 13:00N 55°48' W 134°24'2424.0 080 / 231010.5 5.4 10.1 12.5
2017-Jun-14 12:00N 56°12' W 134°24'3618.1 030 / 171012.0 9.7 12.7
2017-Jun-14 10:00N 56°48' W 134°30'1919.2 030 / 151012.0 5.4 10.0 10.0
2017-Jun-14 09:00N 57°06' W 134°42'2424.0 330 / 21011.0 2.2 10.0 10.0
2017-Jun-14 08:00N 57°30' W 134°42'1212.4 150 / 71009.0 5.4 10.0 13.6
2017-Jun-14 07:00N 57°42' W 134°48'2424.2 070 / 51010.0 5.4 10.0 13.5
2017-Jun-14 06:00N 58°06' W 134°54'   120 / 51010.0 5.4 9.0 13.2

Dump ship's entire track history